createdAt,value
2023-01-08T00:01:39.674Z,1.30
2023-01-08T00:04:40.718Z,1.50
2023-01-08T00:07:41.577Z,1.40
2023-01-08T00:10:42.444Z,1.30
2023-01-08T00:13:43.554Z,1.20
2023-01-08T00:16:44.897Z,1.30
2023-01-08T00:19:45.669Z,1.40
2023-01-08T00:22:49.740Z,1.50
2023-01-08T00:25:50.874Z,1.80
2023-01-08T00:28:52.002Z,1.80
2023-01-08T00:31:52.633Z,1.60
2023-01-08T00:34:54.842Z,1.60
2023-01-08T00:37:55.688Z,1.70
2023-01-08T00:40:56.588Z,1.90
2023-01-08T00:43:57.656Z,1.80
2023-01-08T00:46:58.451Z,1.70
2023-01-08T00:49:59.543Z,1.40
2023-01-08T00:53:00.939Z,1.50
2023-01-08T00:56:11.151Z,1.40
2023-01-08T00:59:12.547Z,1.40
2023-01-08T01:02:13.538Z,1.50
2023-01-08T01:05:17.862Z,1.60
2023-01-08T01:08:19.084Z,1.50
2023-01-08T01:11:27.749Z,1.50
2023-01-08T01:14:28.628Z,1.50
2023-01-08T01:17:29.395Z,1.40
2023-01-08T01:20:30.264Z,1.60
2023-01-08T01:23:31.003Z,1.40
2023-01-08T01:26:34.100Z,1.50
2023-01-08T01:29:35.650Z,1.40
2023-01-08T01:32:36.717Z,1.80
2023-01-08T01:35:37.707Z,2.00
2023-01-08T01:38:38.675Z,2.00
2023-01-08T01:41:43.418Z,2.10
2023-01-08T01:44:46.203Z,2.20
2023-01-08T01:48:17.207Z,2.10
2023-01-08T01:51:20.017Z,2.10
2023-01-08T01:54:22.700Z,2.10
2023-01-08T01:57:25.077Z,2.20
2023-01-08T02:00:27.666Z,2.50
2023-01-08T02:03:35.348Z,2.50
2023-01-08T02:06:49.622Z,2.50
2023-01-08T02:10:11.513Z,2.70
2023-01-08T02:13:27.143Z,2.90
2023-01-08T02:17:03.433Z,2.70
2023-01-08T02:20:39.756Z,2.60
2023-01-08T02:24:45.333Z,2.70
2023-01-08T02:27:51.360Z,2.80
2023-01-08T02:30:54.781Z,2.80
2023-01-08T02:33:55.995Z,2.70
2023-01-08T02:36:58.149Z,2.70
2023-01-08T02:40:19.440Z,2.60
2023-01-08T02:43:38.841Z,2.40
2023-01-08T02:46:42.145Z,2.10
2023-01-08T02:49:48.422Z,1.90
2023-01-08T02:53:15.808Z,1.80
2023-01-08T02:56:33.507Z,1.60
2023-01-08T02:59:37.949Z,1.40
2023-01-08T03:02:42.455Z,1.30
2023-01-08T03:05:51.590Z,1.50
2023-01-08T03:08:55.165Z,1.80
2023-01-08T03:12:05.350Z,1.70
2023-01-08T03:15:12.438Z,1.70
2023-01-08T03:18:25.185Z,1.70
2023-01-08T03:21:27.831Z,1.80
2023-01-08T03:24:34.606Z,1.70
2023-01-08T03:27:43.260Z,1.70
2023-01-08T03:30:47.415Z,1.70
2023-01-08T03:33:50.638Z,2.00
2023-01-08T03:36:58.143Z,2.20
2023-01-08T03:40:18.018Z,2.50
2023-01-08T03:43:19.160Z,2.80
2023-01-08T03:46:42.401Z,2.70
2023-01-08T03:49:46.146Z,2.60
2023-01-08T03:52:46.923Z,2.50
2023-01-08T03:55:47.963Z,2.30
2023-01-08T03:58:48.674Z,1.90
2023-01-08T04:01:49.436Z,1.60
2023-01-08T04:04:50.599Z,1.70
2023-01-08T04:07:51.469Z,1.70
2023-01-08T04:10:52.642Z,1.70
2023-01-08T04:13:53.577Z,1.70
2023-01-08T04:16:56.121Z,1.80
2023-01-08T04:19:56.934Z,1.90
2023-01-08T04:22:57.940Z,1.90
2023-01-08T04:25:58.708Z,2.00
2023-01-08T04:29:03.260Z,2.00
2023-01-08T04:32:04.579Z,1.90
2023-01-08T04:35:06.063Z,1.80
2023-01-08T04:38:06.880Z,1.80
2023-01-08T04:41:07.729Z,1.90
2023-01-08T04:44:10.092Z,2.00
2023-01-08T04:47:11.264Z,2.10
2023-01-08T04:50:12.391Z,2.20
2023-01-08T04:53:13.624Z,2.20
2023-01-08T04:56:14.569Z,2.10
2023-01-08T04:59:15.636Z,2.20
2023-01-08T05:02:16.785Z,2.30
2023-01-08T05:05:18.083Z,2.30
2023-01-08T05:08:19.035Z,2.30
2023-01-08T05:11:19.994Z,2.30
2023-01-08T05:14:20.950Z,2.20
2023-01-08T05:17:21.707Z,2.20
2023-01-08T05:20:23.064Z,2.20
2023-01-08T05:23:23.840Z,2.20
2023-01-08T05:26:25.145Z,2.20
2023-01-08T05:29:26.101Z,2.10
2023-01-08T05:32:26.783Z,2.00
2023-01-08T05:35:27.585Z,1.90
2023-01-08T05:38:28.821Z,2.00
2023-01-08T05:41:29.528Z,2.00
2023-01-08T05:44:30.378Z,2.00
2023-01-08T05:47:33.229Z,2.00
2023-01-08T05:50:35.650Z,2.10
2023-01-08T05:53:36.847Z,2.00
2023-01-08T05:56:37.994Z,2.00
2023-01-08T05:59:38.678Z,2.10
2023-01-08T06:02:39.706Z,2.00
2023-01-08T06:05:40.963Z,2.10
2023-01-08T06:08:41.739Z,2.10
2023-01-08T06:11:42.499Z,2.10
2023-01-08T06:14:43.061Z,2.20
2023-01-08T06:17:44.418Z,2.20
2023-01-08T06:20:45.512Z,2.30
2023-01-08T06:23:46.392Z,2.50
2023-01-08T06:26:47.084Z,2.50
2023-01-08T06:29:48.020Z,2.40
2023-01-08T06:32:48.827Z,2.40
2023-01-08T06:35:49.570Z,2.70
2023-01-08T06:38:50.309Z,2.80
2023-01-08T06:41:52.221Z,3.00
2023-01-08T06:44:53.144Z,3.00
2023-01-08T06:47:53.839Z,3.10
2023-01-08T06:50:54.584Z,3.20
2023-01-08T06:53:55.657Z,3.20
2023-01-08T06:56:56.958Z,3.20
2023-01-08T06:59:58.267Z,3.10
2023-01-08T07:02:59.977Z,3.00
2023-01-08T07:06:03.627Z,3.00
2023-01-08T07:09:04.600Z,2.90
2023-01-08T07:12:05.921Z,2.90
2023-01-08T07:15:08.183Z,2.90
2023-01-08T07:18:11.832Z,2.90
2023-01-08T07:21:12.797Z,3.00
2023-01-08T07:24:13.984Z,2.90
2023-01-08T07:27:14.669Z,2.90
2023-01-08T07:30:28.803Z,2.90
2023-01-08T07:33:30.797Z,2.90
2023-01-08T07:36:31.978Z,2.80
2023-01-08T07:39:34.386Z,2.90
2023-01-08T07:42:35.734Z,3.00
2023-01-08T07:45:36.647Z,3.10
2023-01-08T07:48:37.380Z,3.20
2023-01-08T07:51:38.255Z,3.40
2023-01-08T07:54:39.062Z,3.40
2023-01-08T07:57:39.917Z,3.50
2023-01-08T08:00:41.453Z,3.60
2023-01-08T08:03:43.058Z,3.70
2023-01-08T08:06:44.136Z,3.80
2023-01-08T08:09:44.997Z,3.70
2023-01-08T08:12:46.287Z,3.60
2023-01-08T08:15:47.463Z,3.70
2023-01-08T08:18:48.356Z,3.70
2023-01-08T08:21:49.277Z,3.80
2023-01-08T08:24:50.131Z,3.90
2023-01-08T08:27:50.940Z,4.20
2023-01-08T08:30:52.777Z,4.40
2023-01-08T08:33:53.711Z,4.40
2023-01-08T08:36:54.560Z,4.10
2023-01-08T08:39:55.316Z,3.90
2023-01-08T08:43:02.681Z,3.90
2023-01-08T08:46:03.820Z,3.70
2023-01-08T08:49:04.610Z,3.70
2023-01-08T08:52:06.661Z,3.60
2023-01-08T08:55:07.932Z,3.60
2023-01-08T08:58:13.081Z,3.70
2023-01-08T09:01:13.856Z,3.50
2023-01-08T09:04:15.293Z,3.30
2023-01-08T09:07:16.466Z,3.20
2023-01-08T09:10:17.550Z,3.20
2023-01-08T09:13:18.759Z,3.20
2023-01-08T09:16:20.009Z,3.40
2023-01-08T09:19:23.061Z,3.60
2023-01-08T09:22:24.205Z,3.70
2023-01-08T09:25:25.176Z,3.70
2023-01-08T09:28:26.232Z,3.70
2023-01-08T09:31:27.837Z,4.10
2023-01-08T09:34:31.050Z,4.50
2023-01-08T09:37:32.137Z,4.50
2023-01-08T09:40:49.512Z,4.60
2023-01-08T09:43:54.059Z,4.70
2023-01-08T09:46:56.566Z,4.90
2023-01-08T09:50:04.186Z,5.30
2023-01-08T09:53:05.570Z,5.20
2023-01-08T09:56:16.706Z,4.50
2023-01-08T09:59:19.392Z,4.30
2023-01-08T10:02:26.467Z,4.30
2023-01-08T10:05:28.809Z,4.30
2023-01-08T10:08:30.621Z,4.40
2023-01-08T10:11:42.384Z,4.40
2023-01-08T10:14:49.967Z,4.50
2023-01-08T10:18:05.969Z,4.50
2023-01-08T10:21:14.036Z,4.60
2023-01-08T10:24:14.965Z,4.60
2023-01-08T10:27:22.311Z,4.60
2023-01-08T10:30:31.179Z,4.70
2023-01-08T10:33:44.692Z,4.80
2023-01-08T10:36:45.592Z,4.90
2023-01-08T10:39:48.765Z,4.80
2023-01-08T10:42:51.692Z,4.80
2023-01-08T10:46:05.412Z,4.80
2023-01-08T10:49:13.799Z,4.80
2023-01-08T10:52:33.003Z,4.80
2023-01-08T10:55:37.696Z,4.90
2023-01-08T10:58:43.338Z,5.00
2023-01-08T11:01:48.945Z,5.00
2023-01-08T11:04:52.875Z,5.10
2023-01-08T11:08:00.091Z,5.10
2023-01-08T11:11:02.542Z,5.20
2023-01-08T11:14:29.875Z,5.30
2023-01-08T11:17:33.366Z,5.30
2023-01-08T11:20:35.150Z,5.40
2023-01-08T11:23:36.438Z,5.30
2023-01-08T11:26:41.051Z,5.30
2023-01-08T11:29:59.580Z,5.40
2023-01-08T11:33:18.542Z,5.40
2023-01-08T11:36:41.585Z,5.40
2023-01-08T11:39:42.880Z,5.40
2023-01-08T11:43:22.697Z,5.40
2023-01-08T11:46:38.852Z,5.40
2023-01-08T11:49:48.788Z,5.40
2023-01-08T11:53:45.672Z,5.30
2023-01-08T11:57:27.900Z,5.20
2023-01-08T12:01:08.376Z,5.20
2023-01-08T12:04:28.209Z,5.40
2023-01-08T12:08:21.284Z,5.60
2023-01-08T12:11:32.969Z,5.90
2023-01-08T12:15:05.863Z,5.80
2023-01-08T12:18:29.634Z,5.60
2023-01-08T12:22:21.729Z,5.40
2023-01-08T12:26:15.994Z,5.30
2023-01-08T12:29:48.746Z,5.40
2023-01-08T12:33:04.274Z,5.40
2023-01-08T12:36:40.070Z,5.40
2023-01-08T12:40:07.249Z,5.50
2023-01-08T12:43:19.943Z,5.50
2023-01-08T12:46:22.987Z,5.50
2023-01-08T12:49:45.757Z,5.60
2023-01-08T12:53:13.444Z,5.50
2023-01-08T12:56:33.633Z,5.50
2023-01-08T12:59:43.272Z,5.50
2023-01-08T13:02:57.884Z,5.40
2023-01-08T13:06:16.029Z,5.40
2023-01-08T13:09:25.733Z,5.50
2023-01-08T13:12:37.842Z,5.50
2023-01-08T13:15:38.799Z,5.50
2023-01-08T13:18:40.643Z,5.50
2023-01-08T13:21:54.918Z,5.50
2023-01-08T13:25:23.119Z,5.60
2023-01-08T13:28:31.784Z,5.70
2023-01-08T13:31:43.268Z,5.60
2023-01-08T13:34:43.990Z,5.60
2023-01-08T13:38:06.713Z,5.70
2023-01-08T13:41:30.864Z,5.70
2023-01-08T13:44:41.219Z,5.60
2023-01-08T13:47:44.448Z,5.60
2023-01-08T13:50:47.215Z,5.60
2023-01-08T13:53:48.127Z,5.50
2023-01-08T13:56:55.961Z,5.60
2023-01-08T14:00:00.153Z,5.60
2023-01-08T14:03:01.403Z,5.70
2023-01-08T14:06:28.332Z,5.70
2023-01-08T14:09:29.235Z,5.60
2023-01-08T14:12:30.569Z,5.60
2023-01-08T14:15:35.632Z,5.40
2023-01-08T14:18:36.312Z,5.40
2023-01-08T14:21:38.041Z,5.40
2023-01-08T14:24:38.851Z,5.40
2023-01-08T14:27:42.860Z,5.40
2023-01-08T14:30:53.208Z,5.40
2023-01-08T14:33:58.561Z,5.30
2023-01-08T14:36:59.694Z,5.30
2023-01-08T14:40:00.776Z,5.40
2023-01-08T14:43:11.663Z,5.40
2023-01-08T14:46:26.290Z,5.40
2023-01-08T14:49:31.415Z,5.50
2023-01-08T14:52:34.471Z,5.50
2023-01-08T14:55:43.997Z,5.50
2023-01-08T14:58:46.243Z,5.50
2023-01-08T15:01:59.172Z,5.50
2023-01-08T15:05:26.908Z,5.40
2023-01-08T15:08:42.011Z,5.30
2023-01-08T15:11:57.442Z,5.30
2023-01-08T15:15:12.762Z,5.30
2023-01-08T15:18:14.971Z,5.30
2023-01-08T15:21:23.923Z,5.30
2023-01-08T15:24:36.588Z,5.20
2023-01-08T15:27:37.916Z,5.10
2023-01-08T15:30:45.794Z,5.20
2023-01-08T15:33:46.746Z,5.10
2023-01-08T15:36:49.400Z,5.10
2023-01-08T15:39:50.493Z,5.10
2023-01-08T15:43:10.337Z,5.20
2023-01-08T15:46:11.874Z,5.20
2023-01-08T15:49:13.326Z,5.20
2023-01-08T15:52:16.472Z,5.10
2023-01-08T15:55:20.752Z,5.10
2023-01-08T15:58:21.653Z,5.10
2023-01-08T16:01:22.417Z,5.10
2023-01-08T16:04:23.591Z,5.00
2023-01-08T16:07:24.629Z,5.00
2023-01-08T16:10:26.205Z,5.00
2023-01-08T16:13:27.195Z,4.90
2023-01-08T16:16:28.021Z,4.90
2023-01-08T16:19:31.189Z,4.90
2023-01-08T16:22:31.984Z,4.90
2023-01-08T16:25:32.761Z,4.90
2023-01-08T16:28:34.122Z,4.90
2023-01-08T16:31:36.408Z,4.80
2023-01-08T16:34:39.300Z,4.80
2023-01-08T16:37:40.564Z,4.80
2023-01-08T16:40:41.920Z,4.70
2023-01-08T16:43:45.341Z,4.70
2023-01-08T16:46:47.441Z,4.80
2023-01-08T16:49:50.475Z,4.80
2023-01-08T16:52:51.540Z,4.80
2023-01-08T16:55:52.660Z,4.90
2023-01-08T16:58:53.472Z,4.80
2023-01-08T17:01:54.711Z,4.80
2023-01-08T17:04:55.507Z,4.80
2023-01-08T17:07:58.598Z,4.80
2023-01-08T17:10:59.351Z,4.80
2023-01-08T17:14:00.331Z,4.80
2023-01-08T17:17:01.041Z,4.80
2023-01-08T17:20:01.922Z,4.80
2023-01-08T17:23:02.989Z,4.70
2023-01-08T17:26:10.113Z,4.70
2023-01-08T17:29:11.301Z,4.70
2023-01-08T17:32:14.273Z,4.70
2023-01-08T17:35:15.429Z,4.70
2023-01-08T17:38:16.391Z,4.70
2023-01-08T17:41:37.706Z,4.70
2023-01-08T17:44:38.470Z,4.70
2023-01-08T17:47:39.419Z,4.50
2023-01-08T17:50:40.697Z,4.50
2023-01-08T17:53:41.711Z,4.50
2023-01-08T17:56:43.594Z,4.60
2023-01-08T17:59:46.212Z,4.60
2023-01-08T18:02:47.344Z,4.60
2023-01-08T18:05:48.531Z,4.60
2023-01-08T18:08:49.285Z,4.60
2023-01-08T18:11:50.124Z,4.50
2023-01-08T18:14:50.993Z,4.60
2023-01-08T18:17:52.896Z,4.60
2023-01-08T18:20:54.519Z,4.60
2023-01-08T18:23:56.022Z,4.60
2023-01-08T18:26:58.245Z,4.60
2023-01-08T18:29:59.185Z,4.60
2023-01-08T18:32:59.824Z,4.50
2023-01-08T18:36:06.536Z,4.40
2023-01-08T18:39:07.190Z,4.40
2023-01-08T18:42:28.279Z,4.40
2023-01-08T18:45:35.344Z,4.40
2023-01-08T18:48:36.296Z,4.40
2023-01-08T18:51:37.131Z,4.40
2023-01-08T18:54:38.412Z,4.40
2023-01-08T18:57:39.640Z,4.50
2023-01-08T19:00:40.725Z,4.50
2023-01-08T19:03:42.054Z,4.50
2023-01-08T19:06:42.771Z,4.50
2023-01-08T19:09:44.203Z,4.50
2023-01-08T19:12:45.559Z,4.50
2023-01-08T19:15:47.346Z,4.50
2023-01-08T19:18:48.603Z,4.50
2023-01-08T19:21:49.604Z,4.50
2023-01-08T19:24:50.789Z,4.50
2023-01-08T19:27:51.625Z,4.50
2023-01-08T19:30:57.868Z,4.50
2023-01-08T19:34:00.741Z,4.60
2023-01-08T19:37:01.813Z,4.60
2023-01-08T19:40:02.548Z,4.70
2023-01-08T19:43:22.100Z,4.60
2023-01-08T19:46:24.180Z,4.70
2023-01-08T19:49:25.773Z,4.80
2023-01-08T19:52:28.517Z,4.80
2023-01-08T19:55:29.470Z,4.90
2023-01-08T19:58:30.645Z,4.90
2023-01-08T20:01:33.742Z,4.80
2023-01-08T20:04:39.317Z,4.70
2023-01-08T20:07:40.493Z,4.60
2023-01-08T20:10:41.794Z,4.50
2023-01-08T20:13:43.827Z,4.50
2023-01-08T20:16:44.805Z,4.50
2023-01-08T20:19:46.165Z,4.50
2023-01-08T20:22:47.555Z,4.50
2023-01-08T20:25:49.410Z,4.50
2023-01-08T20:28:50.716Z,4.50
2023-01-08T20:31:56.970Z,4.50
2023-01-08T20:34:58.046Z,4.50
2023-01-08T20:37:59.834Z,4.50
2023-01-08T20:41:01.201Z,4.60
2023-01-08T20:44:07.686Z,4.70
2023-01-08T20:47:08.633Z,4.70
2023-01-08T20:50:19.385Z,4.70
2023-01-08T20:53:20.823Z,4.70
2023-01-08T20:56:21.870Z,4.70
2023-01-08T20:59:26.841Z,4.70
2023-01-08T21:02:28.980Z,4.60
2023-01-08T21:05:30.485Z,4.60
2023-01-08T21:08:31.332Z,4.60
2023-01-08T21:11:32.361Z,4.60
2023-01-08T21:14:33.101Z,4.70
2023-01-08T21:17:33.909Z,4.80
2023-01-08T21:20:34.910Z,4.80
2023-01-08T21:23:35.910Z,4.80
2023-01-08T21:26:38.044Z,4.80
2023-01-08T21:29:38.771Z,4.90
2023-01-08T21:32:39.930Z,4.90
2023-01-08T21:35:40.785Z,4.90
2023-01-08T21:38:42.295Z,5.10
2023-01-08T21:42:01.826Z,5.10
2023-01-08T21:45:20.937Z,5.10
2023-01-08T21:48:21.592Z,5.20
2023-01-08T21:51:41.072Z,5.10
2023-01-08T21:54:42.244Z,5.10
2023-01-08T21:57:45.287Z,5.20
2023-01-08T22:00:46.265Z,5.10
2023-01-08T22:03:47.567Z,5.10
2023-01-08T22:06:48.704Z,5.20
2023-01-08T22:09:49.946Z,5.20
2023-01-08T22:12:51.125Z,5.10
2023-01-08T22:16:05.142Z,5.10
2023-01-08T22:19:06.217Z,5.10
2023-01-08T22:22:10.436Z,5.00
2023-01-08T22:25:11.579Z,5.00
2023-01-08T22:28:12.985Z,4.90
2023-01-08T22:31:16.577Z,4.80
2023-01-08T22:34:19.010Z,4.80
2023-01-08T22:37:21.934Z,4.70
2023-01-08T22:40:22.986Z,4.70
2023-01-08T22:43:23.993Z,4.70
2023-01-08T22:46:25.962Z,4.70
2023-01-08T22:49:26.783Z,4.70
2023-01-08T22:52:27.666Z,4.70
2023-01-08T22:55:28.489Z,4.70
2023-01-08T22:58:29.681Z,4.70
2023-01-08T23:01:30.900Z,4.70
2023-01-08T23:04:31.657Z,4.70
2023-01-08T23:07:33.149Z,4.70
2023-01-08T23:10:35.015Z,4.70
2023-01-08T23:13:37.791Z,4.80
2023-01-08T23:16:38.948Z,4.90
2023-01-08T23:19:40.697Z,4.90
2023-01-08T23:22:41.851Z,4.90
2023-01-08T23:25:42.803Z,4.80
2023-01-08T23:28:43.849Z,4.80
2023-01-08T23:31:45.126Z,4.80
2023-01-08T23:34:46.385Z,4.80
2023-01-08T23:37:47.080Z,4.80
2023-01-08T23:40:48.017Z,4.80
2023-01-08T23:43:49.597Z,4.80
2023-01-08T23:46:50.272Z,4.80
2023-01-08T23:49:50.910Z,4.90
2023-01-08T23:52:51.633Z,5.00
2023-01-08T23:55:52.618Z,5.10
2023-01-08T23:58:54.843Z,5.30
